createdAt,value
2023-03-11T00:01:07.102Z,46.48
2023-03-11T00:03:37.768Z,46.42
2023-03-11T00:06:05.278Z,45.00
2023-03-11T00:08:32.782Z,45.13
2023-03-11T00:11:00.756Z,45.18
2023-03-11T00:13:29.462Z,45.23
2023-03-11T00:15:57.352Z,44.06
2023-03-11T00:18:29.705Z,44.56
2023-03-11T00:20:59.062Z,44.89
2023-03-11T00:23:26.620Z,44.73
2023-03-11T00:25:53.587Z,44.61
2023-03-11T00:28:26.874Z,44.47
2023-03-11T00:30:54.086Z,45.62
2023-03-11T00:33:20.848Z,45.54
2023-03-11T00:35:47.543Z,45.28
2023-03-11T00:38:17.496Z,45.44
2023-03-11T00:40:46.761Z,45.58
2023-03-11T00:43:14.594Z,45.01
2023-03-11T00:45:41.411Z,44.67
2023-03-11T00:48:08.619Z,45.13
2023-03-11T00:50:37.324Z,45.35
2023-03-11T00:53:05.289Z,45.84
2023-03-11T00:55:36.673Z,45.83
2023-03-11T00:58:07.789Z,46.17
2023-03-11T01:00:40.496Z,45.36
2023-03-11T01:03:07.450Z,45.96
2023-03-11T01:05:35.080Z,45.83
2023-03-11T01:08:03.503Z,45.90
2023-03-11T01:10:37.956Z,46.27
2023-03-11T01:13:05.039Z,46.42
2023-03-11T01:15:35.045Z,46.67
2023-03-11T01:18:03.010Z,45.85
2023-03-11T01:20:31.993Z,45.42
2023-03-11T01:22:59.150Z,46.42
2023-03-11T01:25:27.446Z,46.51
2023-03-11T01:27:54.199Z,45.97
2023-03-11T01:30:25.494Z,46.80
2023-03-11T01:32:53.526Z,45.85
2023-03-11T01:35:22.401Z,46.69
2023-03-11T01:37:49.129Z,46.17
2023-03-11T01:40:37.846Z,46.89
2023-03-11T01:43:36.025Z,46.79
2023-03-11T01:46:18.467Z,46.15
2023-03-11T01:48:50.098Z,46.19
2023-03-11T01:51:24.355Z,46.48
2023-03-11T01:53:53.737Z,46.83
2023-03-11T01:56:21.105Z,46.33
2023-03-11T01:58:52.300Z,46.57
2023-03-11T02:01:26.574Z,46.17
2023-03-11T02:03:55.349Z,46.30
2023-03-11T02:06:24.278Z,45.98
2023-03-11T02:08:51.794Z,45.53
2023-03-11T02:11:24.924Z,44.88
2023-03-11T02:13:54.653Z,44.48
2023-03-11T02:16:21.847Z,44.51
2023-03-11T02:18:50.746Z,44.11
2023-03-11T02:21:26.475Z,44.31
2023-03-11T02:24:16.050Z,44.45
2023-03-11T02:27:07.481Z,45.46
2023-03-11T02:29:34.819Z,46.00
2023-03-11T02:32:06.797Z,45.37
2023-03-11T02:34:36.141Z,45.58
2023-03-11T02:37:12.151Z,45.48
2023-03-11T02:39:52.947Z,45.64
2023-03-11T02:42:26.390Z,45.50
2023-03-11T02:45:02.368Z,46.70
2023-03-11T02:47:30.451Z,45.76
2023-03-11T02:49:57.503Z,45.69
2023-03-11T02:52:33.564Z,46.59
2023-03-11T02:55:00.469Z,45.69
2023-03-11T02:57:27.243Z,46.41
2023-03-11T02:59:54.190Z,45.94
2023-03-11T03:02:21.128Z,46.46
2023-03-11T03:04:48.298Z,46.66
2023-03-11T03:07:15.898Z,47.02
2023-03-11T03:09:42.663Z,46.63
2023-03-11T03:12:09.475Z,46.24
2023-03-11T03:14:36.748Z,46.90
2023-03-11T03:17:03.861Z,46.18
2023-03-11T03:19:30.590Z,45.47
2023-03-11T03:21:57.493Z,45.90
2023-03-11T03:24:24.704Z,46.36
2023-03-11T03:26:52.218Z,46.08
2023-03-11T03:29:19.172Z,46.49
2023-03-11T03:31:47.918Z,46.95
2023-03-11T03:34:14.756Z,46.93
2023-03-11T03:36:41.528Z,46.85
2023-03-11T03:39:08.374Z,46.76
2023-03-11T03:41:37.074Z,47.21
2023-03-11T03:44:04.931Z,47.37
2023-03-11T03:46:33.711Z,47.49
2023-03-11T03:49:00.677Z,47.69
2023-03-11T03:51:29.152Z,47.74
2023-03-11T03:54:10.118Z,47.74
2023-03-11T03:56:36.829Z,47.87
2023-03-11T03:59:04.136Z,47.49
2023-03-11T04:01:37.434Z,47.94
2023-03-11T04:04:04.503Z,47.85
2023-03-11T04:06:31.234Z,47.40
2023-03-11T04:09:02.417Z,47.93
2023-03-11T04:11:32.530Z,47.23
2023-03-11T04:14:02.129Z,47.57
2023-03-11T04:16:30.394Z,47.22
2023-03-11T04:19:01.899Z,47.87
2023-03-11T04:21:28.835Z,48.11
2023-03-11T04:23:56.328Z,48.11
2023-03-11T04:26:28.578Z,48.07
2023-03-11T04:28:55.366Z,47.78
2023-03-11T04:31:23.733Z,47.54
2023-03-11T04:33:50.746Z,48.37
2023-03-11T04:36:17.880Z,47.84
2023-03-11T04:38:45.895Z,47.66
2023-03-11T04:41:13.447Z,47.89
2023-03-11T04:43:43.612Z,48.32
2023-03-11T04:46:10.361Z,48.85
2023-03-11T04:48:38.032Z,48.42
2023-03-11T04:51:04.965Z,48.58
2023-03-11T04:53:31.608Z,48.82
2023-03-11T04:55:58.947Z,48.65
2023-03-11T04:58:26.018Z,48.48
2023-03-11T05:00:53.125Z,48.76
2023-03-11T05:03:20.676Z,48.93
2023-03-11T05:05:47.538Z,48.51
2023-03-11T05:08:14.268Z,48.41
2023-03-11T05:10:42.740Z,49.04
2023-03-11T05:13:10.395Z,48.37
2023-03-11T05:15:39.304Z,48.82
2023-03-11T05:18:07.136Z,48.79
2023-03-11T05:20:36.353Z,48.58
2023-03-11T05:23:03.733Z,48.96
2023-03-11T05:25:32.400Z,48.67
2023-03-11T05:27:59.332Z,48.52
2023-03-11T05:30:30.866Z,48.76
2023-03-11T05:32:59.338Z,48.53
2023-03-11T05:35:26.504Z,48.35
2023-03-11T05:37:55.041Z,48.35
2023-03-11T05:40:23.810Z,48.26
2023-03-11T05:42:51.845Z,48.05
2023-03-11T05:45:19.572Z,48.63
2023-03-11T05:47:48.960Z,48.49
2023-03-11T05:50:17.175Z,48.60
2023-03-11T05:52:45.751Z,48.86
2023-03-11T05:55:12.655Z,48.95
2023-03-11T05:57:41.711Z,48.74
2023-03-11T06:00:12.503Z,48.76
2023-03-11T06:02:46.615Z,48.36
2023-03-11T06:05:16.961Z,48.44
2023-03-11T06:07:45.395Z,48.73
2023-03-11T06:10:12.378Z,48.34
2023-03-11T06:12:39.711Z,48.41
2023-03-11T06:15:23.862Z,48.97
2023-03-11T06:17:51.899Z,48.68
2023-03-11T06:20:19.196Z,48.44
2023-03-11T06:22:49.256Z,48.24
2023-03-11T06:25:16.347Z,48.17
2023-03-11T06:27:44.761Z,48.23
2023-03-11T06:30:12.582Z,48.86
2023-03-11T06:32:49.130Z,48.41
2023-03-11T06:35:15.968Z,48.69
2023-03-11T06:37:42.720Z,48.28
2023-03-11T06:40:11.102Z,47.85
2023-03-11T06:42:38.334Z,47.76
2023-03-11T06:45:08.050Z,48.25
2023-03-11T06:47:34.805Z,48.73
2023-03-11T06:50:06.579Z,48.34
2023-03-11T06:52:33.807Z,47.85
2023-03-11T06:55:01.120Z,47.98
2023-03-11T06:57:29.515Z,47.40
2023-03-11T06:59:58.190Z,47.40
2023-03-11T07:02:25.322Z,47.08
2023-03-11T07:04:52.330Z,47.16
2023-03-11T07:07:21.379Z,47.54
2023-03-11T07:09:48.331Z,47.62
2023-03-11T07:12:15.020Z,46.99
2023-03-11T07:14:41.975Z,46.73
2023-03-11T07:17:08.662Z,47.14
2023-03-11T07:19:45.025Z,47.06
2023-03-11T07:22:11.722Z,47.55
2023-03-11T07:24:38.436Z,48.09
2023-03-11T07:27:05.084Z,47.37
2023-03-11T07:29:31.824Z,47.46
2023-03-11T07:31:58.565Z,47.69
2023-03-11T07:34:25.353Z,47.53
2023-03-11T07:36:52.030Z,46.82
2023-03-11T07:39:20.127Z,47.37
2023-03-11T07:41:47.762Z,46.40
2023-03-11T07:44:15.898Z,46.45
2023-03-11T07:46:44.412Z,46.24
2023-03-11T07:49:11.845Z,46.51
2023-03-11T07:51:41.101Z,46.43
2023-03-11T07:54:07.889Z,46.50
2023-03-11T07:56:35.865Z,46.01
2023-03-11T07:59:04.729Z,46.05
2023-03-11T08:01:36.682Z,46.41
2023-03-11T08:04:08.604Z,46.29
2023-03-11T08:06:37.009Z,45.62
2023-03-11T08:09:06.767Z,46.07
2023-03-11T08:11:34.649Z,45.82
2023-03-11T08:14:01.911Z,45.12
2023-03-11T08:16:29.457Z,45.40
2023-03-11T08:18:56.100Z,45.61
2023-03-11T08:21:28.989Z,45.35
2023-03-11T08:24:01.421Z,45.22
2023-03-11T08:26:28.334Z,44.70
2023-03-11T08:28:56.228Z,43.91
2023-03-11T08:31:27.880Z,44.12
2023-03-11T08:33:59.193Z,43.53
2023-03-11T08:36:25.952Z,42.35
2023-03-11T08:38:53.054Z,41.40
2023-03-11T08:41:19.998Z,40.80
2023-03-11T08:43:46.973Z,40.93
2023-03-11T08:46:21.045Z,40.66
2023-03-11T08:48:47.962Z,40.93
2023-03-11T08:51:15.536Z,40.47
2023-03-11T08:53:42.526Z,39.69
2023-03-11T08:56:10.921Z,39.10
2023-03-11T08:58:37.752Z,38.72
2023-03-11T09:01:06.029Z,38.55
2023-03-11T09:03:35.438Z,37.87
2023-03-11T09:06:07.690Z,37.62
2023-03-11T09:08:35.336Z,37.47
2023-03-11T09:11:02.450Z,37.77
2023-03-11T09:13:29.563Z,37.92
2023-03-11T09:15:56.657Z,36.80
2023-03-11T09:18:25.738Z,36.52
2023-03-11T09:20:58.298Z,35.88
2023-03-11T09:23:25.671Z,35.35
2023-03-11T09:25:52.425Z,35.19
2023-03-11T09:28:19.350Z,32.84
2023-03-11T09:30:46.146Z,33.51
2023-03-11T09:33:12.898Z,33.16
2023-03-11T09:35:40.011Z,33.58
2023-03-11T09:38:07.012Z,33.20
2023-03-11T09:40:51.689Z,32.67
2023-03-11T09:43:36.891Z,33.43
2023-03-11T09:46:32.607Z,32.91
2023-03-11T09:49:17.727Z,31.76
2023-03-11T09:51:54.779Z,31.60
2023-03-11T09:54:22.945Z,29.32
2023-03-11T09:56:50.869Z,29.08
2023-03-11T09:59:25.103Z,28.88
2023-03-11T10:01:55.811Z,27.82
2023-03-11T10:04:29.795Z,24.12
2023-03-11T10:07:00.105Z,23.53
2023-03-11T10:09:42.797Z,23.71
2023-03-11T10:12:31.035Z,20.03
2023-03-11T10:15:25.775Z,16.55
2023-03-11T10:18:21.288Z,13.49
2023-03-11T10:21:06.734Z,15.56
2023-03-11T10:23:46.847Z,15.59
2023-03-11T10:26:34.379Z,12.93
2023-03-11T10:29:23.314Z,10.71
2023-03-11T10:32:21.946Z,9.86
2023-03-11T10:34:53.639Z,9.27
2023-03-11T10:37:48.022Z,8.77
2023-03-11T10:40:30.693Z,7.89
2023-03-11T10:43:03.180Z,9.01
2023-03-11T10:45:37.986Z,10.28
2023-03-11T10:48:13.044Z,9.13
2023-03-11T10:51:03.986Z,8.70
2023-03-11T10:53:31.351Z,8.21
2023-03-11T10:55:59.951Z,8.92
2023-03-11T10:58:31.192Z,11.52
2023-03-11T11:01:11.190Z,12.82
2023-03-11T11:03:42.511Z,14.50
2023-03-11T11:06:22.887Z,15.91
2023-03-11T11:08:49.684Z,13.22
2023-03-11T11:11:22.653Z,11.02
2023-03-11T11:14:00.384Z,9.50
2023-03-11T11:16:29.109Z,8.59
2023-03-11T11:19:10.772Z,8.82
2023-03-11T11:21:45.486Z,8.41
2023-03-11T11:24:29.472Z,8.32
2023-03-11T11:27:22.750Z,7.54
2023-03-11T11:30:14.800Z,9.82
2023-03-11T11:32:42.241Z,12.78
2023-03-11T11:35:15.687Z,14.56
2023-03-11T11:37:49.820Z,15.79
2023-03-11T11:40:16.733Z,17.07
2023-03-11T11:42:58.100Z,18.47
2023-03-11T11:45:45.479Z,19.14
2023-03-11T11:48:25.535Z,19.45
2023-03-11T11:50:57.851Z,19.40
2023-03-11T11:53:42.928Z,19.52
2023-03-11T11:56:10.187Z,16.23
2023-03-11T11:58:37.441Z,14.92
2023-03-11T12:01:24.005Z,13.03
2023-03-11T12:04:00.526Z,11.20
2023-03-11T12:06:30.425Z,9.87
2023-03-11T12:09:05.729Z,8.62
2023-03-11T12:11:54.053Z,8.08
2023-03-11T12:15:19.067Z,8.28
2023-03-11T12:38:40.556Z,11.88
2023-03-11T12:41:31.906Z,11.41
2023-03-11T12:44:07.962Z,12.98
2023-03-11T12:47:00.936Z,14.82
2023-03-11T12:49:42.101Z,16.36
2023-03-11T12:52:18.922Z,17.66
2023-03-11T12:55:17.583Z,18.94
2023-03-11T12:58:16.449Z,19.64
2023-03-11T13:01:18.750Z,20.85
2023-03-11T13:04:10.702Z,21.48
2023-03-11T13:07:29.043Z,22.25
2023-03-11T13:10:30.601Z,22.81
2023-03-11T13:12:58.094Z,23.13
2023-03-11T13:15:34.173Z,22.80
2023-03-11T13:18:13.156Z,22.78
2023-03-11T13:20:42.967Z,22.50
2023-03-11T13:23:09.682Z,21.96
2023-03-11T13:25:39.800Z,21.68
2023-03-11T13:28:31.423Z,22.62
2023-03-11T13:31:26.086Z,22.21
2023-03-11T13:34:15.362Z,21.95
2023-03-11T13:36:49.701Z,22.06
2023-03-11T13:39:56.213Z,22.28
2023-03-11T13:42:51.961Z,22.39
2023-03-11T13:45:31.228Z,24.10
2023-03-11T13:48:21.949Z,24.01
2023-03-11T13:50:55.451Z,24.11
2023-03-11T13:53:47.392Z,24.42
2023-03-11T13:56:28.448Z,24.00
2023-03-11T13:59:15.008Z,23.92
2023-03-11T14:01:52.414Z,23.61
2023-03-11T14:04:50.439Z,23.52
2023-03-11T14:07:31.115Z,23.83
2023-03-11T14:10:16.823Z,24.10
2023-03-11T14:12:47.340Z,24.26
2023-03-11T14:15:24.054Z,25.24
2023-03-11T14:17:52.654Z,26.05
2023-03-11T14:20:23.697Z,25.50
2023-03-11T14:22:53.601Z,25.05
2023-03-11T14:25:31.337Z,25.61
2023-03-11T14:28:02.078Z,26.09
2023-03-11T14:30:31.760Z,26.15
2023-03-11T14:33:20.808Z,26.08
2023-03-11T14:36:11.920Z,25.66
2023-03-11T14:38:44.641Z,24.52
2023-03-11T14:41:14.880Z,25.49
2023-03-11T14:43:46.500Z,25.64
2023-03-11T14:46:22.605Z,25.24
2023-03-11T14:48:53.394Z,25.75
2023-03-11T14:51:26.588Z,26.72
2023-03-11T14:54:24.531Z,26.66
2023-03-11T14:57:06.664Z,26.29
2023-03-11T14:59:36.017Z,26.44
2023-03-11T15:02:29.172Z,26.33
2023-03-11T15:04:59.429Z,26.52
2023-03-11T15:07:27.450Z,26.78
2023-03-11T15:09:54.469Z,26.15
2023-03-11T15:12:33.446Z,26.72
2023-03-11T15:15:00.905Z,26.63
2023-03-11T15:17:42.765Z,26.97
2023-03-11T15:20:37.776Z,26.47
2023-03-11T15:23:07.617Z,26.75
2023-03-11T15:25:38.181Z,26.56
2023-03-11T15:28:31.131Z,26.65
2023-03-11T15:31:17.016Z,27.35
2023-03-11T15:33:45.014Z,27.13
2023-03-11T15:36:30.346Z,27.46
2023-03-11T15:39:25.416Z,27.91
2023-03-11T15:42:08.219Z,28.65
2023-03-11T15:44:53.718Z,28.46
2023-03-11T15:47:22.602Z,29.45
2023-03-11T15:49:51.573Z,29.66
2023-03-11T15:52:19.820Z,29.53
2023-03-11T15:54:55.118Z,29.38
2023-03-11T15:57:28.282Z,30.07
2023-03-11T16:00:00.094Z,29.20
2023-03-11T16:02:30.387Z,29.46
2023-03-11T16:05:05.424Z,29.42
2023-03-11T16:07:39.563Z,29.29
2023-03-11T16:10:11.315Z,30.29
2023-03-11T16:12:38.203Z,30.28
2023-03-11T16:15:06.898Z,29.95
2023-03-11T16:17:48.374Z,30.74
2023-03-11T16:20:16.384Z,30.62
2023-03-11T16:22:45.371Z,30.57
2023-03-11T16:25:22.147Z,30.06
2023-03-11T16:27:52.174Z,30.11
2023-03-11T16:30:20.151Z,30.06
2023-03-11T16:32:47.424Z,30.69
2023-03-11T16:35:14.817Z,30.70
2023-03-11T16:37:43.451Z,30.91
2023-03-11T16:40:19.377Z,30.77
2023-03-11T16:42:47.300Z,31.18
2023-03-11T16:45:16.334Z,30.86
2023-03-11T16:47:43.065Z,31.85
2023-03-11T16:50:11.342Z,31.92
2023-03-11T16:52:39.540Z,31.41
2023-03-11T16:55:07.036Z,31.79
2023-03-11T16:57:33.759Z,31.71
2023-03-11T17:00:00.457Z,31.89
2023-03-11T17:02:27.768Z,31.91
2023-03-11T17:04:54.837Z,32.19
2023-03-11T17:07:24.174Z,32.99
2023-03-11T17:09:52.096Z,33.16
2023-03-11T17:12:19.241Z,33.44
2023-03-11T17:14:47.194Z,33.12
2023-03-11T17:17:14.095Z,33.45
2023-03-11T17:19:44.795Z,33.77
2023-03-11T17:22:12.177Z,33.88
2023-03-11T17:24:39.645Z,34.51
2023-03-11T17:27:08.386Z,35.01
2023-03-11T17:29:36.601Z,34.62
2023-03-11T17:32:07.091Z,35.13
2023-03-11T17:34:33.944Z,35.01
2023-03-11T17:37:00.920Z,35.29
2023-03-11T17:39:27.774Z,34.90
2023-03-11T17:41:54.703Z,35.43
2023-03-11T17:44:22.794Z,34.84
2023-03-11T17:46:49.580Z,35.61
2023-03-11T17:49:16.424Z,35.67
2023-03-11T17:51:43.074Z,35.17
2023-03-11T17:54:35.432Z,35.12
2023-03-11T17:57:02.337Z,35.30
2023-03-11T17:59:29.427Z,35.41
2023-03-11T18:01:56.455Z,36.21
2023-03-11T18:04:25.370Z,36.11
2023-03-11T18:06:54.039Z,36.22
2023-03-11T18:09:23.326Z,36.14
2023-03-11T18:11:52.040Z,35.58
2023-03-11T18:14:18.845Z,36.53
2023-03-11T18:16:47.654Z,36.32
2023-03-11T18:19:14.623Z,36.69
2023-03-11T18:21:41.956Z,36.69
2023-03-11T18:24:09.242Z,36.37
2023-03-11T18:26:35.929Z,36.78
2023-03-11T18:29:02.737Z,36.37
2023-03-11T18:31:30.737Z,36.17
2023-03-11T18:34:03.453Z,37.00
2023-03-11T18:36:35.772Z,36.68
2023-03-11T18:39:04.767Z,37.17
2023-03-11T18:41:34.554Z,36.50
2023-03-11T18:44:04.431Z,37.30
2023-03-11T18:46:34.279Z,36.77
2023-03-11T18:49:03.879Z,36.76
2023-03-11T18:51:32.287Z,37.27
2023-03-11T18:54:00.185Z,37.55
2023-03-11T18:56:30.910Z,37.95
2023-03-11T18:58:58.947Z,38.11
2023-03-11T19:01:27.269Z,38.40
2023-03-11T19:03:59.494Z,38.77
2023-03-11T19:06:30.728Z,38.30
2023-03-11T19:08:58.284Z,38.54
2023-03-11T19:11:25.749Z,38.62
2023-03-11T19:13:52.874Z,38.66
2023-03-11T19:16:23.883Z,38.17
2023-03-11T19:18:51.597Z,38.20
2023-03-11T19:21:18.441Z,38.11
2023-03-11T19:23:46.010Z,38.88
2023-03-11T19:26:13.713Z,38.98
2023-03-11T19:28:41.133Z,38.41
2023-03-11T19:31:08.450Z,38.66
2023-03-11T19:33:35.392Z,38.35
2023-03-11T19:36:07.219Z,38.58
2023-03-11T19:38:37.562Z,38.51
2023-03-11T19:41:06.449Z,38.55
2023-03-11T19:43:35.789Z,38.29
2023-03-11T19:46:09.699Z,38.00
2023-03-11T19:48:36.560Z,38.10
2023-03-11T19:51:08.675Z,38.36
2023-03-11T19:53:36.709Z,39.06
2023-03-11T19:56:06.807Z,38.98
2023-03-11T19:58:33.672Z,38.49
2023-03-11T20:01:00.762Z,38.50
2023-03-11T20:03:28.683Z,38.73
2023-03-11T20:06:02.898Z,38.65
2023-03-11T20:08:30.890Z,39.12
2023-03-11T20:11:00.889Z,38.80
2023-03-11T20:13:31.135Z,38.73
2023-03-11T20:16:05.637Z,39.52
2023-03-11T20:18:32.808Z,39.03
2023-03-11T20:20:59.567Z,39.54
2023-03-11T20:23:27.749Z,39.40
2023-03-11T20:25:56.025Z,39.67
2023-03-11T20:28:23.220Z,39.55
2023-03-11T20:30:50.085Z,39.71
2023-03-11T20:33:16.899Z,39.95
2023-03-11T20:35:43.792Z,40.13
2023-03-11T20:38:12.930Z,39.58
2023-03-11T20:40:39.754Z,40.27
2023-03-11T20:43:06.499Z,40.63
2023-03-11T20:45:33.124Z,40.38
2023-03-11T20:48:00.626Z,40.55
2023-03-11T20:50:27.661Z,40.99
2023-03-11T20:52:54.418Z,41.39
2023-03-11T20:55:22.889Z,41.37
2023-03-11T20:57:49.816Z,41.17
2023-03-11T21:00:17.370Z,42.31
2023-03-11T21:02:44.459Z,42.10
2023-03-11T21:05:12.545Z,42.15
2023-03-11T21:07:41.282Z,41.75
2023-03-11T21:10:16.828Z,41.36
2023-03-11T21:12:43.721Z,40.80
2023-03-11T21:15:12.351Z,41.41
2023-03-11T21:17:39.472Z,41.54
2023-03-11T21:20:06.899Z,41.40
2023-03-11T21:22:37.184Z,41.15
2023-03-11T21:32:43.283Z,42.57
2023-03-11T21:36:03.560Z,42.21
2023-03-11T21:39:45.949Z,42.08
2023-03-11T21:42:54.842Z,42.88
2023-03-11T21:45:56.277Z,41.79
2023-03-11T21:52:28.162Z,42.79
2023-03-11T21:55:09.729Z,42.50
2023-03-11T21:58:07.455Z,42.78
2023-03-11T22:00:37.519Z,43.20
2023-03-11T22:03:06.158Z,43.02
2023-03-11T22:05:32.913Z,43.00
2023-03-11T22:07:59.665Z,43.35
2023-03-11T22:10:26.535Z,42.73
2023-03-11T22:12:54.010Z,42.75
2023-03-11T22:15:20.769Z,42.90
2023-03-11T22:17:48.887Z,43.00
2023-03-11T22:20:15.968Z,42.73
2023-03-11T22:22:42.703Z,43.28
2023-03-11T22:25:09.583Z,43.08
2023-03-11T22:27:36.246Z,43.20
2023-03-11T22:30:03.138Z,42.84
2023-03-11T22:32:29.809Z,42.91
2023-03-11T22:34:56.546Z,43.29
2023-03-11T22:37:23.300Z,43.20
2023-03-11T22:39:50.046Z,43.59
2023-03-11T22:42:16.800Z,43.06
2023-03-11T22:44:43.523Z,43.41
2023-03-11T22:47:10.537Z,43.79
2023-03-11T22:49:37.228Z,44.17
2023-03-11T22:52:04.009Z,43.71
2023-03-11T22:54:30.762Z,43.75
2023-03-11T22:56:57.629Z,43.77
2023-03-11T22:59:27.018Z,43.38
2023-03-11T23:01:53.803Z,43.61
2023-03-11T23:04:20.586Z,43.88
2023-03-11T23:06:47.869Z,43.94
2023-03-11T23:09:15.299Z,44.01
2023-03-11T23:11:41.951Z,44.30
2023-03-11T23:14:09.090Z,43.80
2023-03-11T23:16:35.759Z,44.84
2023-03-11T23:19:02.404Z,44.49
2023-03-11T23:21:32.861Z,44.88
2023-03-11T23:24:02.777Z,44.44
2023-03-11T23:26:29.964Z,44.35
2023-03-11T23:28:58.441Z,44.85
2023-03-11T23:31:27.028Z,45.09
2023-03-11T23:33:54.327Z,44.54
2023-03-11T23:36:23.212Z,45.03
2023-03-11T23:38:51.183Z,44.71
2023-03-11T23:41:20.452Z,44.86
2023-03-11T23:43:47.801Z,45.09
2023-03-11T23:46:15.524Z,45.23
2023-03-11T23:48:43.824Z,45.46
2023-03-11T23:51:10.775Z,45.22
2023-03-11T23:53:38.102Z,45.51
2023-03-11T23:56:15.280Z,45.33
2023-03-11T23:58:42.105Z,45.31
